This is the latest recevied weather packets stored in our database for station/object W0JRT-6. If no packets are shown the sender has not sent any weather packets the latest 10 day(s).
| Time | Temp. | Humidity | Pressure | Rain* | Wind** | Luminosity | Snow |
|---|---|---|---|---|---|---|---|
| 1777441197 | 8.33° C | 87% | 1016.8 hPa | 0 mm | - | - | - |
| 1777439398 | 8.89° C | 84% | 1016.6 hPa | 0 mm | - | - | - |
| 1777435797 | 9.44° C | 79% | 1016.5 hPa | 0 mm | - | - | - |
| 1777432810 | 10° C | 78% | 1016.5 hPa | 0 mm | - | - | - |
| 1777430998 | 10.56° C | 78% | 1015.6 hPa | 0 mm | - | - | - |
| 1777430403 | 11.11° C | 78% | 1015.4 hPa | 0 mm | - | - | - |
| 1777429207 | 11.11° C | 77% | 1014.8 hPa | 0 mm | - | - | - |
| 1777428609 | 11.67° C | 74% | 1014.4 hPa | 0 mm | - | - | - |
| 1777427999 | 12.22° C | 73% | 1014.1 hPa | 0 mm | - | - | - |
| 1777427399 | 12.22° C | 73% | 1013.8 hPa | 0 mm | - | - | - |
| 1777425012 | 13.33° C | 68% | 1011.6 hPa | 0 mm | - | - | - |
| 1777424412 | 13.89° C | 69% | 1011.2 hPa | 0 mm | - | - | - |
| 1777422604 | 15° C | 66% | 1010.4 hPa | 0 mm | - | - | - |
| 1777422013 | 15.56° C | 66% | 1010.1 hPa | 0 mm | - | - | - |
| 1777420798 | 16.11° C | 61% | 1009.6 hPa | 0 mm | - | - | - |
| 1777420205 | 16.67° C | 60% | 1009.4 hPa | 0 mm | - | - | - |
| 1777419601 | 16.11° C | 62% | 1009.2 hPa | 0 mm | - | - | - |
| 1777419004 | 16.67° C | 59% | 1009.2 hPa | 0 mm | - | - | - |
| 1777417812 | 16.67° C | 61% | 1009.1 hPa | 0 mm | - | - | - |
| 1777416610 | 16.11° C | 63% | 1009.1 hPa | 0 mm | - | - | - |
| 1777416009 | 16.67° C | 60% | 1009 hPa | 0 mm | - | - | - |
| 1777415785 | 16.11° C | 66% | 1009 hPa | 0 mm | - | - | - |
| 1777415402 | 16.11° C | 66% | 1009 hPa | 0 mm | - | - | - |
| 1777414809 | 16.67° C | 61% | 1008.9 hPa | 0 mm | - | - | - |
| 1777414726 | 17.22° C | 62% | 1008.9 hPa | 0 mm | - | - | - |
* Rain since midnight (hover to see other rain measurements)
** Current wind speed in m/s (hover to see current wind gust speed)